sensor_id;sensor_type;location;lat;lon;timestamp;P1;durP1;ratioP1;P2;durP2;ratioP2
7273;SDS011;3678;60.002;17.846;2023-01-08T00:01:04;4.13;;;3.10;;
7273;SDS011;3678;60.002;17.846;2023-01-08T00:03:32;4.10;;;3.03;;
7273;SDS011;3678;60.002;17.846;2023-01-08T00:06:00;3.13;;;2.50;;
7273;SDS011;3678;60.002;17.846;2023-01-08T00:08:29;4.00;;;2.60;;
7273;SDS011;3678;60.002;17.846;2023-01-08T00:10:56;4.23;;;2.60;;
7273;SDS011;3678;60.002;17.846;2023-01-08T00:13:23;3.83;;;2.90;;
7273;SDS011;3678;60.002;17.846;2023-01-08T00:15:50;4.57;;;3.17;;
7273;SDS011;3678;60.002;17.846;2023-01-08T00:18:18;3.67;;;2.40;;
7273;SDS011;3678;60.002;17.846;2023-01-08T00:20:45;4.80;;;2.70;;
7273;SDS011;3678;60.002;17.846;2023-01-08T00:23:12;5.00;;;2.90;;
7273;SDS011;3678;60.002;17.846;2023-01-08T00:25:41;3.63;;;2.77;;
7273;SDS011;3678;60.002;17.846;2023-01-08T00:28:08;4.57;;;2.63;;
7273;SDS011;3678;60.002;17.846;2023-01-08T00:30:36;4.60;;;2.40;;
7273;SDS011;3678;60.002;17.846;2023-01-08T00:33:03;3.73;;;2.67;;
7273;SDS011;3678;60.002;17.846;2023-01-08T00:35:30;4.93;;;2.67;;
7273;SDS011;3678;60.002;17.846;2023-01-08T00:37:57;4.00;;;2.70;;
7273;SDS011;3678;60.002;17.846;2023-01-08T00:40:24;3.87;;;2.83;;
7273;SDS011;3678;60.002;17.846;2023-01-08T00:42:53;5.50;;;2.83;;
7273;SDS011;3678;60.002;17.846;2023-01-08T00:45:20;3.57;;;2.53;;
7273;SDS011;3678;60.002;17.846;2023-01-08T00:47:47;3.53;;;2.23;;
7273;SDS011;3678;60.002;17.846;2023-01-08T00:50:14;4.03;;;2.53;;
7273;SDS011;3678;60.002;17.846;2023-01-08T00:52:42;3.60;;;2.67;;
7273;SDS011;3678;60.002;17.846;2023-01-08T00:55:09;3.50;;;2.57;;
7273;SDS011;3678;60.002;17.846;2023-01-08T00:57:37;3.60;;;2.80;;
7273;SDS011;3678;60.002;17.846;2023-01-08T01:00:07;4.80;;;2.47;;
7273;SDS011;3678;60.002;17.846;2023-01-08T01:02:34;3.80;;;2.30;;
7273;SDS011;3678;60.002;17.846;2023-01-08T01:05:02;3.70;;;2.47;;
7273;SDS011;3678;60.002;17.846;2023-01-08T01:07:29;4.00;;;2.90;;
7273;SDS011;3678;60.002;17.846;2023-01-08T01:09:56;4.67;;;2.63;;
7273;SDS011;3678;60.002;17.846;2023-01-08T01:12:23;3.10;;;2.50;;
7273;SDS011;3678;60.002;17.846;2023-01-08T01:14:50;3.87;;;2.90;;
7273;SDS011;3678;60.002;17.846;2023-01-08T01:17:19;4.07;;;2.90;;
7273;SDS011;3678;60.002;17.846;2023-01-08T01:19:46;4.73;;;3.00;;
7273;SDS011;3678;60.002;17.846;2023-01-08T01:22:13;4.53;;;2.77;;
7273;SDS011;3678;60.002;17.846;2023-01-08T01:24:40;5.73;;;4.23;;
7273;SDS011;3678;60.002;17.846;2023-01-08T01:27:09;4.57;;;2.70;;
7273;SDS011;3678;60.002;17.846;2023-01-08T01:29:36;5.07;;;2.60;;
7273;SDS011;3678;60.002;17.846;2023-01-08T01:32:04;3.95;;;2.85;;
7273;SDS011;3678;60.002;17.846;2023-01-08T01:34:32;4.20;;;2.87;;
7273;SDS011;3678;60.002;17.846;2023-01-08T01:36:59;3.80;;;2.73;;
7273;SDS011;3678;60.002;17.846;2023-01-08T01:39:27;2.83;;;2.07;;
7273;SDS011;3678;60.002;17.846;2023-01-08T01:41:54;3.50;;;2.07;;
7273;SDS011;3678;60.002;17.846;2023-01-08T01:44:35;4.13;;;2.40;;
7273;SDS011;3678;60.002;17.846;2023-01-08T01:47:05;3.77;;;2.80;;
7273;SDS011;3678;60.002;17.846;2023-01-08T01:49:35;4.37;;;2.47;;
7273;SDS011;3678;60.002;17.846;2023-01-08T01:52:02;4.20;;;2.90;;
7273;SDS011;3678;60.002;17.846;2023-01-08T01:54:31;3.67;;;2.43;;
7273;SDS011;3678;60.002;17.846;2023-01-08T01:57:00;3.87;;;2.60;;
7273;SDS011;3678;60.002;17.846;2023-01-08T01:59:27;4.23;;;2.57;;
7273;SDS011;3678;60.002;17.846;2023-01-08T02:01:54;3.92;;;2.88;;
7273;SDS011;3678;60.002;17.846;2023-01-08T02:04:22;3.73;;;2.80;;
7273;SDS011;3678;60.002;17.846;2023-01-08T02:06:53;4.00;;;2.67;;
7273;SDS011;3678;60.002;17.846;2023-01-08T02:09:22;4.17;;;2.70;;
7273;SDS011;3678;60.002;17.846;2023-01-08T02:11:54;4.87;;;2.50;;
7273;SDS011;3678;60.002;17.846;2023-01-08T02:14:39;3.97;;;2.10;;
7273;SDS011;3678;60.002;17.846;2023-01-08T02:17:09;3.30;;;2.27;;
7273;SDS011;3678;60.002;17.846;2023-01-08T02:19:39;3.10;;;2.30;;
7273;SDS011;3678;60.002;17.846;2023-01-08T02:22:12;5.13;;;3.10;;
7273;SDS011;3678;60.002;17.846;2023-01-08T02:24:44;4.17;;;2.33;;
7273;SDS011;3678;60.002;17.846;2023-01-08T02:27:14;3.83;;;2.73;;
7273;SDS011;3678;60.002;17.846;2023-01-08T02:29:42;3.57;;;2.63;;
7273;SDS011;3678;60.002;17.846;2023-01-08T02:32:10;5.13;;;3.33;;
7273;SDS011;3678;60.002;17.846;2023-01-08T02:34:37;3.77;;;2.53;;
7273;SDS011;3678;60.002;17.846;2023-01-08T02:37:04;6.60;;;2.87;;
7273;SDS011;3678;60.002;17.846;2023-01-08T02:39:35;3.87;;;2.53;;
7273;SDS011;3678;60.002;17.846;2023-01-08T02:42:04;4.90;;;2.77;;
7273;SDS011;3678;60.002;17.846;2023-01-08T02:44:44;5.60;;;3.70;;
7273;SDS011;3678;60.002;17.846;2023-01-08T02:47:15;4.17;;;2.67;;
7273;SDS011;3678;60.002;17.846;2023-01-08T02:49:44;5.40;;;2.97;;
7273;SDS011;3678;60.002;17.846;2023-01-08T02:52:12;3.53;;;2.50;;
7273;SDS011;3678;60.002;17.846;2023-01-08T02:54:41;4.40;;;2.87;;
7273;SDS011;3678;60.002;17.846;2023-01-08T02:57:10;5.90;;;3.40;;
7273;SDS011;3678;60.002;17.846;2023-01-08T02:59:38;5.40;;;3.00;;
7273;SDS011;3678;60.002;17.846;2023-01-08T03:02:06;6.50;;;3.33;;
7273;SDS011;3678;60.002;17.846;2023-01-08T03:04:35;4.47;;;2.90;;
7273;SDS011;3678;60.002;17.846;2023-01-08T03:07:03;3.70;;;2.77;;
7273;SDS011;3678;60.002;17.846;2023-01-08T03:09:30;4.23;;;3.03;;
7273;SDS011;3678;60.002;17.846;2023-01-08T03:11:58;4.03;;;2.80;;
7273;SDS011;3678;60.002;17.846;2023-01-08T03:14:27;3.90;;;3.00;;
7273;SDS011;3678;60.002;17.846;2023-01-08T03:16:56;4.40;;;3.13;;
7273;SDS011;3678;60.002;17.846;2023-01-08T03:19:27;4.57;;;2.97;;
7273;SDS011;3678;60.002;17.846;2023-01-08T03:21:55;5.27;;;2.60;;
7273;SDS011;3678;60.002;17.846;2023-01-08T03:24:24;5.47;;;2.60;;
7273;SDS011;3678;60.002;17.846;2023-01-08T03:26:53;5.53;;;3.10;;
7273;SDS011;3678;60.002;17.846;2023-01-08T03:29:22;5.03;;;2.97;;
7273;SDS011;3678;60.002;17.846;2023-01-08T03:31:50;5.97;;;3.53;;
7273;SDS011;3678;60.002;17.846;2023-01-08T03:34:18;4.07;;;2.53;;
7273;SDS011;3678;60.002;17.846;2023-01-08T03:36:48;4.93;;;2.53;;
7273;SDS011;3678;60.002;17.846;2023-01-08T03:39:16;3.70;;;2.63;;
7273;SDS011;3678;60.002;17.846;2023-01-08T03:41:45;4.37;;;2.77;;
7273;SDS011;3678;60.002;17.846;2023-01-08T03:44:13;5.10;;;2.53;;
7273;SDS011;3678;60.002;17.846;2023-01-08T03:46:41;3.67;;;2.53;;
7273;SDS011;3678;60.002;17.846;2023-01-08T03:49:10;5.50;;;2.33;;
7273;SDS011;3678;60.002;17.846;2023-01-08T03:51:38;4.80;;;2.40;;
7273;SDS011;3678;60.002;17.846;2023-01-08T03:54:06;5.13;;;2.47;;
7273;SDS011;3678;60.002;17.846;2023-01-08T03:56:35;3.23;;;2.27;;
7273;SDS011;3678;60.002;17.846;2023-01-08T03:59:02;4.57;;;2.73;;
7273;SDS011;3678;60.002;17.846;2023-01-08T04:01:29;3.20;;;2.53;;
7273;SDS011;3678;60.002;17.846;2023-01-08T04:03:56;4.17;;;2.47;;
7273;SDS011;3678;60.002;17.846;2023-01-08T04:06:24;2.93;;;2.43;;
7273;SDS011;3678;60.002;17.846;2023-01-08T04:08:51;4.33;;;2.57;;
7273;SDS011;3678;60.002;17.846;2023-01-08T04:11:20;3.40;;;1.97;;
7273;SDS011;3678;60.002;17.846;2023-01-08T04:13:48;2.83;;;2.40;;
7273;SDS011;3678;60.002;17.846;2023-01-08T04:16:15;3.40;;;2.30;;
7273;SDS011;3678;60.002;17.846;2023-01-08T04:18:42;4.83;;;2.40;;
7273;SDS011;3678;60.002;17.846;2023-01-08T04:21:09;3.07;;;1.80;;
7273;SDS011;3678;60.002;17.846;2023-01-08T04:23:36;4.23;;;2.50;;
7273;SDS011;3678;60.002;17.846;2023-01-08T04:26:03;2.80;;;2.10;;
7273;SDS011;3678;60.002;17.846;2023-01-08T04:28:32;2.47;;;2.13;;
7273;SDS011;3678;60.002;17.846;2023-01-08T04:30:59;2.47;;;1.77;;
7273;SDS011;3678;60.002;17.846;2023-01-08T04:33:30;2.37;;;1.60;;
7273;SDS011;3678;60.002;17.846;2023-01-08T04:35:57;3.70;;;2.00;;
7273;SDS011;3678;60.002;17.846;2023-01-08T04:38:24;3.90;;;2.00;;
7273;SDS011;3678;60.002;17.846;2023-01-08T04:40:54;2.40;;;1.70;;
7273;SDS011;3678;60.002;17.846;2023-01-08T04:43:22;3.00;;;1.60;;
7273;SDS011;3678;60.002;17.846;2023-01-08T04:45:50;3.20;;;1.70;;
7273;SDS011;3678;60.002;17.846;2023-01-08T04:48:17;2.00;;;1.63;;
7273;SDS011;3678;60.002;17.846;2023-01-08T04:50:44;3.43;;;1.80;;
7273;SDS011;3678;60.002;17.846;2023-01-08T04:53:11;2.93;;;1.63;;
7273;SDS011;3678;60.002;17.846;2023-01-08T04:55:38;3.10;;;1.93;;
7273;SDS011;3678;60.002;17.846;2023-01-08T04:58:06;2.57;;;1.60;;
7273;SDS011;3678;60.002;17.846;2023-01-08T05:00:33;2.80;;;1.70;;
7273;SDS011;3678;60.002;17.846;2023-01-08T05:03:01;2.27;;;1.50;;
7273;SDS011;3678;60.002;17.846;2023-01-08T05:05:28;2.43;;;1.60;;
7273;SDS011;3678;60.002;17.846;2023-01-08T05:07:56;2.57;;;1.50;;
7273;SDS011;3678;60.002;17.846;2023-01-08T05:10:23;2.57;;;1.70;;
7273;SDS011;3678;60.002;17.846;2023-01-08T05:12:50;1.83;;;1.57;;
7273;SDS011;3678;60.002;17.846;2023-01-08T05:15:17;3.50;;;1.77;;
7273;SDS011;3678;60.002;17.846;2023-01-08T05:17:44;2.90;;;1.60;;
7273;SDS011;3678;60.002;17.846;2023-01-08T05:20:13;2.53;;;1.50;;
7273;SDS011;3678;60.002;17.846;2023-01-08T05:22:40;2.27;;;1.53;;
7273;SDS011;3678;60.002;17.846;2023-01-08T05:25:07;2.17;;;1.50;;
7273;SDS011;3678;60.002;17.846;2023-01-08T05:27:34;1.40;;;1.30;;
7273;SDS011;3678;60.002;17.846;2023-01-08T05:30:01;2.03;;;1.80;;
7273;SDS011;3678;60.002;17.846;2023-01-08T05:32:28;2.00;;;1.63;;
7273;SDS011;3678;60.002;17.846;2023-01-08T05:34:55;2.43;;;1.37;;
7273;SDS011;3678;60.002;17.846;2023-01-08T05:37:24;2.20;;;1.30;;
7273;SDS011;3678;60.002;17.846;2023-01-08T05:39:51;1.60;;;1.30;;
7273;SDS011;3678;60.002;17.846;2023-01-08T05:42:18;2.00;;;1.40;;
7273;SDS011;3678;60.002;17.846;2023-01-08T05:44:45;1.80;;;1.27;;
7273;SDS011;3678;60.002;17.846;2023-01-08T05:47:12;2.63;;;1.23;;
7273;SDS011;3678;60.002;17.846;2023-01-08T05:49:39;1.27;;;1.10;;
7273;SDS011;3678;60.002;17.846;2023-01-08T05:52:07;1.77;;;1.20;;
7273;SDS011;3678;60.002;17.846;2023-01-08T05:54:35;1.43;;;1.20;;
7273;SDS011;3678;60.002;17.846;2023-01-08T05:57:02;2.33;;;1.40;;
7273;SDS011;3678;60.002;17.846;2023-01-08T05:59:29;2.30;;;1.20;;
7273;SDS011;3678;60.002;17.846;2023-01-08T06:01:57;1.40;;;1.27;;
7273;SDS011;3678;60.002;17.846;2023-01-08T06:04:24;1.83;;;1.20;;
7273;SDS011;3678;60.002;17.846;2023-01-08T06:06:51;1.83;;;1.30;;
7273;SDS011;3678;60.002;17.846;2023-01-08T06:09:18;2.73;;;1.20;;
7273;SDS011;3678;60.002;17.846;2023-01-08T06:11:47;1.60;;;1.10;;
7273;SDS011;3678;60.002;17.846;2023-01-08T06:14:14;1.00;;;0.90;;
7273;SDS011;3678;60.002;17.846;2023-01-08T06:16:41;2.00;;;1.30;;
7273;SDS011;3678;60.002;17.846;2023-01-08T06:19:08;1.67;;;1.20;;
7273;SDS011;3678;60.002;17.846;2023-01-08T06:21:36;2.30;;;1.30;;
7273;SDS011;3678;60.002;17.846;2023-01-08T06:24:03;2.50;;;1.57;;
7273;SDS011;3678;60.002;17.846;2023-01-08T06:26:30;1.50;;;1.10;;
7273;SDS011;3678;60.002;17.846;2023-01-08T06:28:59;1.40;;;1.00;;
7273;SDS011;3678;60.002;17.846;2023-01-08T06:31:26;2.10;;;1.33;;
7273;SDS011;3678;60.002;17.846;2023-01-08T06:33:53;1.33;;;1.03;;
7273;SDS011;3678;60.002;17.846;2023-01-08T06:36:20;1.10;;;1.00;;
7273;SDS011;3678;60.002;17.846;2023-01-08T06:38:47;1.80;;;1.33;;
7273;SDS011;3678;60.002;17.846;2023-01-08T06:41:15;1.83;;;0.93;;
7273;SDS011;3678;60.002;17.846;2023-01-08T06:43:42;1.53;;;1.10;;
7273;SDS011;3678;60.002;17.846;2023-01-08T06:46:10;1.60;;;0.80;;
7273;SDS011;3678;60.002;17.846;2023-01-08T06:48:38;1.63;;;1.10;;
7273;SDS011;3678;60.002;17.846;2023-01-08T06:51:05;1.13;;;0.93;;
7273;SDS011;3678;60.002;17.846;2023-01-08T06:53:33;1.97;;;1.30;;
7273;SDS011;3678;60.002;17.846;2023-01-08T06:56:01;1.87;;;1.17;;
7273;SDS011;3678;60.002;17.846;2023-01-08T06:58:28;1.17;;;0.90;;
7273;SDS011;3678;60.002;17.846;2023-01-08T07:00:55;1.27;;;1.13;;
7273;SDS011;3678;60.002;17.846;2023-01-08T07:03:24;1.60;;;1.20;;
7273;SDS011;3678;60.002;17.846;2023-01-08T07:05:52;2.03;;;1.00;;
7273;SDS011;3678;60.002;17.846;2023-01-08T07:08:19;1.27;;;1.00;;
7273;SDS011;3678;60.002;17.846;2023-01-08T07:10:46;1.77;;;1.03;;
7273;SDS011;3678;60.002;17.846;2023-01-08T07:13:13;2.07;;;1.00;;
7273;SDS011;3678;60.002;17.846;2023-01-08T07:15:41;1.43;;;1.20;;
7273;SDS011;3678;60.002;17.846;2023-01-08T07:18:09;1.13;;;1.03;;
7273;SDS011;3678;60.002;17.846;2023-01-08T07:20:37;1.33;;;1.20;;
7273;SDS011;3678;60.002;17.846;2023-01-08T07:23:05;1.57;;;1.00;;
7273;SDS011;3678;60.002;17.846;2023-01-08T07:25:33;2.00;;;1.07;;
7273;SDS011;3678;60.002;17.846;2023-01-08T07:28:00;1.20;;;1.10;;
7273;SDS011;3678;60.002;17.846;2023-01-08T07:30:27;1.47;;;1.07;;
7273;SDS011;3678;60.002;17.846;2023-01-08T07:32:56;1.57;;;1.20;;
7273;SDS011;3678;60.002;17.846;2023-01-08T07:35:24;1.07;;;0.97;;
7273;SDS011;3678;60.002;17.846;2023-01-08T07:37:52;2.40;;;1.40;;
7273;SDS011;3678;60.002;17.846;2023-01-08T07:40:19;2.97;;;1.13;;
7273;SDS011;3678;60.002;17.846;2023-01-08T07:42:46;1.37;;;1.07;;
7273;SDS011;3678;60.002;17.846;2023-01-08T07:45:14;2.20;;;1.02;;
7273;SDS011;3678;60.002;17.846;2023-01-08T07:47:41;1.30;;;1.10;;
7273;SDS011;3678;60.002;17.846;2023-01-08T07:50:08;0.90;;;0.80;;
7273;SDS011;3678;60.002;17.846;2023-01-08T07:52:35;1.10;;;0.90;;
7273;SDS011;3678;60.002;17.846;2023-01-08T07:55:04;1.10;;;1.00;;
7273;SDS011;3678;60.002;17.846;2023-01-08T07:57:31;1.10;;;1.00;;
7273;SDS011;3678;60.002;17.846;2023-01-08T07:59:58;1.20;;;1.00;;
7273;SDS011;3678;60.002;17.846;2023-01-08T08:02:26;2.10;;;1.07;;
7273;SDS011;3678;60.002;17.846;2023-01-08T08:04:53;1.40;;;0.90;;
7273;SDS011;3678;60.002;17.846;2023-01-08T08:07:20;2.27;;;1.10;;
7273;SDS011;3678;60.002;17.846;2023-01-08T08:09:47;1.43;;;1.10;;
7273;SDS011;3678;60.002;17.846;2023-01-08T08:12:15;1.73;;;1.00;;
7273;SDS011;3678;60.002;17.846;2023-01-08T08:14:42;1.60;;;1.30;;
7273;SDS011;3678;60.002;17.846;2023-01-08T08:17:10;1.50;;;1.17;;
7273;SDS011;3678;60.002;17.846;2023-01-08T08:19:37;1.00;;;0.90;;
7273;SDS011;3678;60.002;17.846;2023-01-08T08:22:05;1.53;;;1.10;;
7273;SDS011;3678;60.002;17.846;2023-01-08T08:24:32;1.97;;;0.90;;
7273;SDS011;3678;60.002;17.846;2023-01-08T08:26:59;2.63;;;1.03;;
7273;SDS011;3678;60.002;17.846;2023-01-08T08:29:28;1.93;;;1.00;;
7273;SDS011;3678;60.002;17.846;2023-01-08T08:31:55;1.00;;;0.90;;
7273;SDS011;3678;60.002;17.846;2023-01-08T08:34:22;1.33;;;1.20;;
7273;SDS011;3678;60.002;17.846;2023-01-08T08:36:49;1.83;;;1.00;;
7273;SDS011;3678;60.002;17.846;2023-01-08T08:39:16;1.60;;;1.10;;
7273;SDS011;3678;60.002;17.846;2023-01-08T08:41:43;1.13;;;0.93;;
7273;SDS011;3678;60.002;17.846;2023-01-08T08:44:11;1.43;;;1.10;;
7273;SDS011;3678;60.002;17.846;2023-01-08T08:46:39;2.25;;;1.23;;
7273;SDS011;3678;60.002;17.846;2023-01-08T08:49:06;1.90;;;1.30;;
7273;SDS011;3678;60.002;17.846;2023-01-08T08:51:33;1.83;;;1.20;;
7273;SDS011;3678;60.002;17.846;2023-01-08T08:54:00;2.73;;;1.40;;
7273;SDS011;3678;60.002;17.846;2023-01-08T08:56:28;2.47;;;1.37;;
7273;SDS011;3678;60.002;17.846;2023-01-08T08:58:55;1.50;;;1.30;;
7273;SDS011;3678;60.002;17.846;2023-01-08T09:01:23;1.75;;;1.40;;
7273;SDS011;3678;60.002;17.846;2023-01-08T09:03:51;2.40;;;1.50;;
7273;SDS011;3678;60.002;17.846;2023-01-08T09:06:18;2.50;;;1.45;;
7273;SDS011;3678;60.002;17.846;2023-01-08T09:08:45;1.83;;;1.40;;
7273;SDS011;3678;60.002;17.846;2023-01-08T09:11:13;1.43;;;1.30;;
7273;SDS011;3678;60.002;17.846;2023-01-08T09:13:40;1.93;;;1.20;;
7273;SDS011;3678;60.002;17.846;2023-01-08T09:16:07;2.53;;;1.27;;
7273;SDS011;3678;60.002;17.846;2023-01-08T09:18:34;2.70;;;1.33;;
7273;SDS011;3678;60.002;17.846;2023-01-08T09:21:06;2.20;;;1.20;;
7273;SDS011;3678;60.002;17.846;2023-01-08T09:23:34;1.83;;;1.20;;
7273;SDS011;3678;60.002;17.846;2023-01-08T09:26:03;1.80;;;1.33;;
7273;SDS011;3678;60.002;17.846;2023-01-08T09:28:30;2.33;;;1.40;;
7273;SDS011;3678;60.002;17.846;2023-01-08T09:30:59;1.65;;;1.33;;
7273;SDS011;3678;60.002;17.846;2023-01-08T09:33:27;1.40;;;1.30;;
7273;SDS011;3678;60.002;17.846;2023-01-08T09:35:54;2.50;;;1.50;;
7273;SDS011;3678;60.002;17.846;2023-01-08T09:38:22;2.25;;;1.60;;
7273;SDS011;3678;60.002;17.846;2023-01-08T09:40:51;1.90;;;1.40;;
7273;SDS011;3678;60.002;17.846;2023-01-08T09:43:21;1.97;;;1.33;;
7273;SDS011;3678;60.002;17.846;2023-01-08T09:45:50;2.10;;;1.60;;
7273;SDS011;3678;60.002;17.846;2023-01-08T09:48:18;2.60;;;1.47;;
7273;SDS011;3678;60.002;17.846;2023-01-08T09:50:46;1.53;;;1.07;;
7273;SDS011;3678;60.002;17.846;2023-01-08T09:53:14;2.13;;;1.47;;
7273;SDS011;3678;60.002;17.846;2023-01-08T09:55:44;1.47;;;1.17;;
7273;SDS011;3678;60.002;17.846;2023-01-08T09:58:13;2.47;;;1.10;;
7273;SDS011;3678;60.002;17.846;2023-01-08T10:00:45;1.70;;;1.48;;
7273;SDS011;3678;60.002;17.846;2023-01-08T10:03:12;2.07;;;1.37;;
7273;SDS011;3678;60.002;17.846;2023-01-08T10:05:39;1.47;;;1.20;;
7273;SDS011;3678;60.002;17.846;2023-01-08T10:08:08;1.67;;;1.23;;
7273;SDS011;3678;60.002;17.846;2023-01-08T10:10:37;1.40;;;1.10;;
7273;SDS011;3678;60.002;17.846;2023-01-08T10:13:07;2.10;;;1.30;;
7273;SDS011;3678;60.002;17.846;2023-01-08T10:15:35;2.20;;;1.23;;
7273;SDS011;3678;60.002;17.846;2023-01-08T10:18:03;2.97;;;1.20;;
7273;SDS011;3678;60.002;17.846;2023-01-08T10:20:31;1.80;;;1.30;;
7273;SDS011;3678;60.002;17.846;2023-01-08T10:23:07;2.07;;;1.43;;
7273;SDS011;3678;60.002;17.846;2023-01-08T10:25:45;1.67;;;1.10;;
7273;SDS011;3678;60.002;17.846;2023-01-08T10:28:17;1.60;;;1.23;;
7273;SDS011;3678;60.002;17.846;2023-01-08T10:30:45;2.10;;;1.30;;
7273;SDS011;3678;60.002;17.846;2023-01-08T10:33:14;2.23;;;1.27;;
7273;SDS011;3678;60.002;17.846;2023-01-08T10:35:49;2.93;;;1.80;;
7273;SDS011;3678;60.002;17.846;2023-01-08T10:38:24;2.73;;;1.30;;
7273;SDS011;3678;60.002;17.846;2023-01-08T10:40:51;3.50;;;1.70;;
7273;SDS011;3678;60.002;17.846;2023-01-08T10:43:21;3.57;;;1.90;;
7273;SDS011;3678;60.002;17.846;2023-01-08T10:45:53;2.83;;;1.92;;
7273;SDS011;3678;60.002;17.846;2023-01-08T10:48:21;2.47;;;1.70;;
7273;SDS011;3678;60.002;17.846;2023-01-08T10:50:49;2.93;;;1.70;;
7273;SDS011;3678;60.002;17.846;2023-01-08T10:53:22;5.20;;;2.07;;
7273;SDS011;3678;60.002;17.846;2023-01-08T10:55:56;2.73;;;2.20;;
7273;SDS011;3678;60.002;17.846;2023-01-08T10:58:26;2.80;;;1.60;;
7273;SDS011;3678;60.002;17.846;2023-01-08T11:00:53;4.32;;;2.50;;
7273;SDS011;3678;60.002;17.846;2023-01-08T11:03:23;5.93;;;2.23;;
7273;SDS011;3678;60.002;17.846;2023-01-08T11:05:52;9.13;;;3.37;;
7273;SDS011;3678;60.002;17.846;2023-01-08T11:08:20;9.27;;;3.20;;
7273;SDS011;3678;60.002;17.846;2023-01-08T11:10:52;4.93;;;2.53;;
7273;SDS011;3678;60.002;17.846;2023-01-08T11:13:19;11.10;;;3.50;;
7273;SDS011;3678;60.002;17.846;2023-01-08T11:15:48;15.63;;;4.03;;
7273;SDS011;3678;60.002;17.846;2023-01-08T11:18:24;4.33;;;1.93;;
7273;SDS011;3678;60.002;17.846;2023-01-08T11:20:53;7.37;;;3.10;;
7273;SDS011;3678;60.002;17.846;2023-01-08T11:23:31;10.07;;;3.90;;
7273;SDS011;3678;60.002;17.846;2023-01-08T11:26:00;11.13;;;3.60;;
7273;SDS011;3678;60.002;17.846;2023-01-08T11:28:32;5.83;;;3.03;;
7273;SDS011;3678;60.002;17.846;2023-01-08T11:31:03;11.90;;;5.20;;
7273;SDS011;3678;60.002;17.846;2023-01-08T11:33:34;42.63;;;6.87;;
7273;SDS011;3678;60.002;17.846;2023-01-08T11:36:04;17.77;;;5.20;;
7273;SDS011;3678;60.002;17.846;2023-01-08T11:38:36;5.93;;;3.20;;
7273;SDS011;3678;60.002;17.846;2023-01-08T11:41:08;7.77;;;3.90;;
7273;SDS011;3678;60.002;17.846;2023-01-08T11:43:39;6.10;;;3.57;;
7273;SDS011;3678;60.002;17.846;2023-01-08T11:46:15;8.13;;;4.60;;
7273;SDS011;3678;60.002;17.846;2023-01-08T11:48:54;7.10;;;4.00;;
7273;SDS011;3678;60.002;17.846;2023-01-08T11:51:28;8.73;;;4.70;;
7273;SDS011;3678;60.002;17.846;2023-01-08T11:54:02;6.87;;;4.13;;
7273;SDS011;3678;60.002;17.846;2023-01-08T11:56:35;11.15;;;5.47;;
7273;SDS011;3678;60.002;17.846;2023-01-08T11:59:07;7.00;;;4.03;;
7273;SDS011;3678;60.002;17.846;2023-01-08T12:01:43;12.85;;;6.80;;
7273;SDS011;3678;60.002;17.846;2023-01-08T12:04:17;14.67;;;6.20;;
7273;SDS011;3678;60.002;17.846;2023-01-08T12:06:49;10.40;;;5.20;;
7273;SDS011;3678;60.002;17.846;2023-01-08T12:09:22;8.30;;;4.70;;
7273;SDS011;3678;60.002;17.846;2023-01-08T12:11:55;9.63;;;5.17;;
7273;SDS011;3678;60.002;17.846;2023-01-08T12:14:27;10.70;;;5.77;;
7273;SDS011;3678;60.002;17.846;2023-01-08T12:17:02;11.97;;;6.77;;
7273;SDS011;3678;60.002;17.846;2023-01-08T12:19:38;16.00;;;6.67;;
7273;SDS011;3678;60.002;17.846;2023-01-08T12:22:14;12.30;;;5.87;;
7273;SDS011;3678;60.002;17.846;2023-01-08T12:24:51;11.77;;;6.90;;
7273;SDS011;3678;60.002;17.846;2023-01-08T12:27:22;13.60;;;6.57;;
7273;SDS011;3678;60.002;17.846;2023-01-08T12:29:56;13.93;;;7.78;;
7273;SDS011;3678;60.002;17.846;2023-01-08T12:32:32;12.40;;;6.40;;
7273;SDS011;3678;60.002;17.846;2023-01-08T12:35:03;11.17;;;6.33;;
7273;SDS011;3678;60.002;17.846;2023-01-08T12:37:34;13.23;;;7.07;;
7273;SDS011;3678;60.002;17.846;2023-01-08T12:40:11;13.47;;;6.67;;
7273;SDS011;3678;60.002;17.846;2023-01-08T12:42:39;13.73;;;7.13;;
7273;SDS011;3678;60.002;17.846;2023-01-08T12:45:11;11.40;;;6.80;;
7273;SDS011;3678;60.002;17.846;2023-01-08T12:47:41;16.40;;;8.47;;
7273;SDS011;3678;60.002;17.846;2023-01-08T12:50:18;14.50;;;8.23;;
7273;SDS011;3678;60.002;17.846;2023-01-08T12:52:47;16.07;;;8.43;;
7273;SDS011;3678;60.002;17.846;2023-01-08T12:55:21;17.00;;;8.90;;
7273;SDS011;3678;60.002;17.846;2023-01-08T12:57:55;18.43;;;9.47;;
7273;SDS011;3678;60.002;17.846;2023-01-08T13:00:25;17.27;;;9.73;;
7273;SDS011;3678;60.002;17.846;2023-01-08T13:02:56;20.33;;;10.13;;
7273;SDS011;3678;60.002;17.846;2023-01-08T13:05:29;22.57;;;10.23;;
7273;SDS011;3678;60.002;17.846;2023-01-08T13:07:56;17.13;;;8.93;;
7273;SDS011;3678;60.002;17.846;2023-01-08T13:10:31;19.65;;;9.88;;
7273;SDS011;3678;60.002;17.846;2023-01-08T13:13:00;15.00;;;8.73;;
7273;SDS011;3678;60.002;17.846;2023-01-08T13:15:28;17.80;;;9.27;;
7273;SDS011;3678;60.002;17.846;2023-01-08T13:17:59;19.27;;;10.03;;
7273;SDS011;3678;60.002;17.846;2023-01-08T13:20:29;19.47;;;9.97;;
7273;SDS011;3678;60.002;17.846;2023-01-08T13:22:57;25.20;;;11.17;;
7273;SDS011;3678;60.002;17.846;2023-01-08T13:25:26;22.47;;;10.67;;
7273;SDS011;3678;60.002;17.846;2023-01-08T13:27:54;22.80;;;11.03;;
7273;SDS011;3678;60.002;17.846;2023-01-08T13:30:32;21.77;;;11.20;;
7273;SDS011;3678;60.002;17.846;2023-01-08T13:33:01;20.07;;;9.50;;
7273;SDS011;3678;60.002;17.846;2023-01-08T13:35:29;19.73;;;10.10;;
7273;SDS011;3678;60.002;17.846;2023-01-08T13:38:11;21.17;;;9.37;;
7273;SDS011;3678;60.002;17.846;2023-01-08T13:40:48;22.97;;;10.00;;
7273;SDS011;3678;60.002;17.846;2023-01-08T13:43:18;19.53;;;10.10;;
7273;SDS011;3678;60.002;17.846;2023-01-08T13:45:47;23.13;;;10.17;;
7273;SDS011;3678;60.002;17.846;2023-01-08T13:48:21;20.83;;;10.47;;
7273;SDS011;3678;60.002;17.846;2023-01-08T13:50:48;20.17;;;10.57;;
7273;SDS011;3678;60.002;17.846;2023-01-08T13:53:16;20.20;;;10.30;;
7273;SDS011;3678;60.002;17.846;2023-01-08T13:55:45;20.63;;;10.83;;
7273;SDS011;3678;60.002;17.846;2023-01-08T13:58:20;20.77;;;10.00;;
7273;SDS011;3678;60.002;17.846;2023-01-08T14:00:50;22.33;;;10.30;;
7273;SDS011;3678;60.002;17.846;2023-01-08T14:03:23;17.97;;;9.63;;
7273;SDS011;3678;60.002;17.846;2023-01-08T14:05:50;19.92;;;10.98;;
7273;SDS011;3678;60.002;17.846;2023-01-08T14:08:21;20.90;;;10.17;;
7273;SDS011;3678;60.002;17.846;2023-01-08T14:10:48;17.97;;;9.43;;
7273;SDS011;3678;60.002;17.846;2023-01-08T14:13:16;20.13;;;9.27;;
7273;SDS011;3678;60.002;17.846;2023-01-08T14:15:43;22.40;;;11.03;;
7273;SDS011;3678;60.002;17.846;2023-01-08T14:18:13;21.53;;;11.20;;
7273;SDS011;3678;60.002;17.846;2023-01-08T14:20:42;20.37;;;11.43;;
7273;SDS011;3678;60.002;17.846;2023-01-08T14:23:11;21.83;;;10.63;;
7273;SDS011;3678;60.002;17.846;2023-01-08T14:25:39;20.50;;;10.73;;
7273;SDS011;3678;60.002;17.846;2023-01-08T14:28:11;22.50;;;10.87;;
7273;SDS011;3678;60.002;17.846;2023-01-08T14:30:46;20.45;;;10.85;;
7273;SDS011;3678;60.002;17.846;2023-01-08T14:33:13;16.33;;;9.13;;
7273;SDS011;3678;60.002;17.846;2023-01-08T14:35:42;19.43;;;9.60;;
7273;SDS011;3678;60.002;17.846;2023-01-08T14:38:10;21.03;;;10.73;;
7273;SDS011;3678;60.002;17.846;2023-01-08T14:40:38;17.00;;;9.03;;
7273;SDS011;3678;60.002;17.846;2023-01-08T14:43:06;18.70;;;10.38;;
7273;SDS011;3678;60.002;17.846;2023-01-08T14:45:34;15.37;;;9.07;;
7273;SDS011;3678;60.002;17.846;2023-01-08T14:48:07;17.50;;;9.40;;
7273;SDS011;3678;60.002;17.846;2023-01-08T14:50:35;21.10;;;9.87;;
7273;SDS011;3678;60.002;17.846;2023-01-08T14:53:05;16.50;;;9.43;;
7273;SDS011;3678;60.002;17.846;2023-01-08T14:55:34;18.77;;;9.00;;
7273;SDS011;3678;60.002;17.846;2023-01-08T14:58:01;17.27;;;8.87;;
7273;SDS011;3678;60.002;17.846;2023-01-08T15:00:29;18.63;;;10.48;;
7273;SDS011;3678;60.002;17.846;2023-01-08T15:02:57;19.43;;;8.17;;
7273;SDS011;3678;60.002;17.846;2023-01-08T15:05:25;18.27;;;8.60;;
7273;SDS011;3678;60.002;17.846;2023-01-08T15:07:55;17.70;;;9.77;;